Unbenanntes Dokument
Flugplatz Bielefeld Platzwetter

 

Aktuelles Platzwetter am Flugplatz Bielefeld EDLI

15.08.18 ,16:47 Uhr

METAR EDLI 151647Z 22005KT 9999 23/12 Q1019

 

Windwerte

 

Wolkenuntergrenzen

Wind aktuell:200 ° mit 4 kt
Wind 10 min Extrem:
170 ° bis 250 ° mit 3 kt bis 7 kt
Seitenwindkomponente: 3.7 kt
Wolkengrenze 1:
Wolkengrenze 2:
Wolkengrenze 3:

Webcam

Temperatur

       

Sichtweite:

20.000 Meter

23.3 °C
Taupunkt: 12.2 °C
Luftfeuchtigkeit: 49 %

Luftdruck:

QNH: 1019 hPa (30.09 in Hg)
QFE: 1003 hPa (29.62 in Hg)

Diese Daten werden automatisch ermittelt bzw. übertragen und sind nicht geprüft. Für die Richtigkeit wird daher keine Gewähr übernommen. Sie ersetzen im übrigen nicht die Flugwetterberatung. Alle Zeitangaben beziehen sich auf UTC. Die Seite wird einmal die Minute aktualisiert! Sollten Sie ein ältere Seite haben, so drücken Sie bitte auf den Reload Button Ihres Browsers!